createdAt,value
2018-05-31T00:01:36.602Z,39.00
2018-05-31T00:04:04.359Z,42.00
2018-05-31T00:06:32.119Z,42.80
2018-05-31T00:08:59.906Z,43.20
2018-05-31T00:11:27.653Z,43.93
2018-05-31T00:13:55.366Z,47.27
2018-05-31T00:16:23.123Z,45.87
2018-05-31T00:18:50.908Z,38.90
2018-05-31T00:21:19.393Z,41.70
2018-05-31T00:23:47.898Z,44.23
2018-05-31T00:26:15.659Z,47.13
2018-05-31T00:28:43.407Z,44.40
2018-05-31T00:31:12.396Z,44.87
2018-05-31T00:33:40.901Z,50.47
2018-05-31T00:36:08.622Z,52.13
2018-05-31T00:38:36.499Z,53.20
2018-05-31T00:41:05.013Z,54.80
2018-05-31T00:43:32.736Z,53.57
2018-05-31T00:46:01.272Z,47.10
2018-05-31T00:48:29.017Z,44.60
2018-05-31T00:50:56.900Z,42.27
2018-05-31T00:53:24.682Z,45.00
2018-05-31T00:56:04.337Z,46.33
2018-05-31T00:58:32.835Z,52.90
2018-05-31T01:01:00.597Z,52.10
2018-05-31T01:03:29.505Z,52.57
2018-05-31T01:05:57.229Z,49.90
2018-05-31T01:08:24.969Z,56.93
2018-05-31T01:10:52.736Z,54.70
2018-05-31T01:13:20.467Z,50.07
2018-05-31T01:15:48.229Z,51.60
2018-05-31T01:18:15.949Z,55.70
2018-05-31T01:20:43.812Z,63.27
2018-05-31T01:23:12.339Z,66.57
2018-05-31T01:25:40.070Z,64.77
2018-05-31T01:28:08.610Z,64.53
2018-05-31T01:30:36.370Z,62.53
2018-05-31T01:33:04.138Z,62.60
2018-05-31T01:35:31.893Z,64.90
2018-05-31T01:38:11.680Z,69.50
2018-05-31T01:40:40.191Z,62.23
2018-05-31T01:43:07.940Z,58.37
2018-05-31T01:45:36.459Z,61.93
2018-05-31T01:48:04.240Z,63.80
2018-05-31T01:50:32.473Z,53.70
2018-05-31T01:53:00.205Z,62.70
2018-05-31T01:55:28.718Z,65.67
2018-05-31T01:57:56.640Z,64.67
2018-05-31T02:00:24.381Z,66.03
2018-05-31T02:02:52.117Z,66.17
2018-05-31T02:05:19.888Z,69.60
2018-05-31T02:07:47.662Z,55.70
2018-05-31T02:10:15.402Z,62.63
2018-05-31T02:12:43.122Z,62.73
2018-05-31T02:15:10.892Z,69.20
2018-05-31T02:17:39.406Z,70.47
2018-05-31T02:20:07.174Z,67.33
2018-05-31T02:22:34.904Z,68.40
2018-05-31T02:25:03.510Z,69.60
2018-05-31T02:27:32.056Z,64.30
2018-05-31T02:29:59.804Z,64.30
2018-05-31T02:32:27.529Z,66.17
2018-05-31T02:34:55.401Z,69.03
2018-05-31T02:37:23.136Z,60.40
2018-05-31T02:39:50.958Z,65.37
2018-05-31T02:42:18.746Z,65.57
2018-05-31T02:44:46.499Z,69.03
2018-05-31T02:47:14.721Z,72.67
2018-05-31T02:49:42.492Z,58.07
2018-05-31T02:52:10.215Z,65.63
2018-05-31T02:54:39.080Z,56.77
2018-05-31T02:57:06.806Z,69.43
2018-05-31T02:59:34.548Z,67.57
2018-05-31T03:02:02.329Z,71.83
2018-05-31T03:04:30.040Z,64.03
2018-05-31T03:06:57.803Z,64.20
2018-05-31T03:09:25.515Z,67.37
2018-05-31T03:11:53.500Z,70.80
2018-05-31T03:14:21.211Z,81.33
2018-05-31T03:16:49.759Z,76.67
2018-05-31T03:19:17.525Z,76.87
2018-05-31T03:21:45.286Z,77.60
2018-05-31T03:24:13.058Z,71.43
2018-05-31T03:26:41.281Z,65.40
2018-05-31T03:29:09.020Z,72.77
2018-05-31T03:31:38.040Z,74.77
2018-05-31T03:34:05.800Z,73.03
2018-05-31T03:36:33.592Z,70.57
2018-05-31T03:39:01.370Z,74.33
2018-05-31T03:41:29.101Z,70.93
2018-05-31T03:43:57.267Z,72.37
2018-05-31T03:46:25.008Z,71.67
2018-05-31T03:48:53.530Z,65.30
2018-05-31T03:51:21.326Z,72.93
2018-05-31T03:53:49.836Z,65.03
2018-05-31T03:56:18.326Z,59.27
2018-05-31T03:58:46.196Z,64.63
2018-05-31T04:01:13.919Z,62.90
2018-05-31T04:03:41.684Z,55.53
2018-05-31T04:06:09.477Z,55.60
2018-05-31T04:08:37.200Z,58.80
2018-05-31T04:11:05.062Z,54.23
2018-05-31T04:13:32.782Z,55.30
2018-05-31T04:16:00.496Z,53.10
2018-05-31T04:18:28.239Z,49.87
2018-05-31T04:20:56.868Z,52.80
2018-05-31T04:23:25.386Z,51.97
2018-05-31T04:25:53.173Z,45.93
2018-05-31T04:28:20.924Z,51.07
2018-05-31T04:30:48.637Z,50.53
2018-05-31T04:33:17.259Z,48.50
2018-05-31T04:35:44.965Z,47.17
2018-05-31T04:38:12.702Z,50.40
2018-05-31T04:40:40.928Z,48.30
2018-05-31T04:43:09.403Z,53.53
2018-05-31T04:45:37.905Z,52.47
2018-05-31T04:48:05.656Z,52.43
2018-05-31T04:50:33.411Z,52.70
2018-05-31T04:53:02.064Z,46.20
2018-05-31T04:55:29.813Z,51.43
2018-05-31T04:57:57.589Z,50.93
2018-05-31T05:00:26.208Z,52.10
2018-05-31T05:02:54.724Z,52.10
2018-05-31T05:05:22.477Z,51.10
2018-05-31T05:07:50.264Z,50.97
2018-05-31T05:10:18.035Z,49.73
2018-05-31T05:12:45.761Z,49.77
2018-05-31T05:15:13.573Z,49.90
2018-05-31T05:17:42.403Z,51.03
2018-05-31T05:20:10.289Z,52.13
2018-05-31T05:22:38.727Z,50.87
2018-05-31T05:25:07.226Z,48.73
2018-05-31T05:27:35.739Z,51.50
2018-05-31T05:30:03.527Z,49.40
2018-05-31T05:32:31.311Z,52.70
2018-05-31T05:34:59.801Z,50.00
2018-05-31T05:37:28.323Z,48.40
2018-05-31T05:39:56.571Z,48.70
2018-05-31T05:42:24.311Z,45.83
2018-05-31T05:44:52.809Z,48.03
2018-05-31T05:47:20.564Z,46.10
2018-05-31T05:49:49.056Z,45.30
2018-05-31T05:52:17.017Z,44.77
2018-05-31T05:54:45.531Z,45.90
2018-05-31T05:57:13.292Z,45.40
2018-05-31T05:59:41.052Z,44.13
2018-05-31T06:02:08.955Z,43.30
2018-05-31T06:04:36.660Z,44.60
2018-05-31T06:07:05.140Z,42.70
2018-05-31T06:09:33.663Z,45.27
2018-05-31T06:12:01.372Z,45.37
2018-05-31T06:14:29.100Z,45.30
2018-05-31T06:16:56.860Z,44.63
2018-05-31T06:19:24.628Z,46.00
2018-05-31T06:21:52.335Z,44.70
2018-05-31T06:24:20.812Z,42.87
2018-05-31T06:26:48.617Z,42.70
2018-05-31T06:29:16.345Z,41.10
2018-05-31T06:31:44.063Z,42.93
2018-05-31T06:34:11.851Z,41.30
2018-05-31T06:36:40.752Z,41.77
2018-05-31T06:39:09.216Z,40.77
2018-05-31T06:41:36.946Z,39.63
2018-05-31T06:44:04.708Z,41.40
2018-05-31T06:46:32.454Z,41.90
2018-05-31T06:49:00.165Z,40.70
2018-05-31T06:51:28.116Z,40.40
2018-05-31T06:53:55.820Z,41.23
2018-05-31T06:56:24.295Z,40.00
2018-05-31T06:58:52.795Z,39.73
2018-05-31T07:01:20.577Z,38.83
2018-05-31T07:03:48.272Z,37.30
2018-05-31T07:06:15.963Z,36.87
2018-05-31T07:08:44.562Z,35.93
2018-05-31T07:11:12.332Z,38.03
2018-05-31T07:13:40.048Z,36.13
2018-05-31T07:16:07.780Z,35.60
2018-05-31T07:18:35.484Z,35.57
2018-05-31T07:21:03.989Z,35.87
2018-05-31T07:23:31.688Z,34.90
2018-05-31T07:25:59.463Z,34.93
2018-05-31T07:28:27.225Z,34.90
2018-05-31T07:30:54.940Z,35.53
2018-05-31T07:33:22.775Z,34.97
2018-05-31T07:35:50.466Z,34.70
2018-05-31T07:38:18.184Z,35.57
2018-05-31T07:40:46.375Z,33.87
2018-05-31T07:43:14.840Z,33.93
2018-05-31T07:45:42.595Z,34.47
2018-05-31T07:48:10.320Z,34.30
2018-05-31T07:50:38.130Z,32.43
2018-05-31T07:53:05.919Z,32.10
2018-05-31T07:55:34.396Z,32.33
2018-05-31T07:58:02.883Z,31.70
2018-05-31T08:00:31.499Z,30.73
2018-05-31T08:02:59.293Z,28.77
2018-05-31T08:05:26.995Z,28.90
2018-05-31T08:07:55.503Z,28.27
2018-05-31T08:10:23.260Z,27.37
2018-05-31T08:12:50.946Z,28.77
2018-05-31T08:15:18.649Z,27.23
2018-05-31T08:17:47.190Z,31.10
2018-05-31T08:20:14.905Z,26.23
2018-05-31T08:22:43.375Z,26.40
2018-05-31T08:25:11.989Z,27.50
2018-05-31T08:27:39.696Z,28.93
2018-05-31T08:30:07.424Z,26.30
2018-05-31T08:32:35.157Z,27.07
2018-05-31T08:35:03.679Z,29.00
2018-05-31T08:37:31.392Z,27.13
2018-05-31T08:39:59.915Z,28.40
2018-05-31T08:42:27.625Z,29.93
2018-05-31T08:44:56.226Z,26.63
2018-05-31T08:47:24.725Z,29.03
2018-05-31T08:49:52.443Z,27.00
2018-05-31T08:52:20.187Z,31.37
2018-05-31T08:54:47.876Z,28.87
2018-05-31T08:57:15.709Z,29.30
2018-05-31T08:59:43.416Z,27.93
2018-05-31T09:02:11.918Z,27.17
2018-05-31T09:04:39.861Z,29.30
2018-05-31T09:07:08.406Z,29.40
2018-05-31T09:09:36.103Z,25.47
2018-05-31T09:12:04.659Z,27.27
2018-05-31T09:14:32.367Z,34.37
2018-05-31T09:17:00.508Z,28.23
2018-05-31T09:19:28.204Z,25.17
2018-05-31T09:21:55.957Z,26.20
2018-05-31T09:24:24.435Z,30.47
2018-05-31T09:26:52.167Z,24.13
2018-05-31T09:29:19.881Z,25.03
2018-05-31T09:31:47.614Z,27.37
2018-05-31T09:34:16.087Z,26.93
2018-05-31T09:36:44.915Z,26.37
2018-05-31T09:39:12.640Z,25.93
2018-05-31T09:41:41.109Z,26.47
2018-05-31T09:44:08.842Z,24.13
2018-05-31T09:46:36.588Z,25.23
2018-05-31T09:49:04.332Z,24.70
2018-05-31T09:51:32.074Z,27.30
2018-05-31T09:54:00.555Z,24.57
2018-05-31T09:56:29.050Z,24.07
2018-05-31T09:58:56.775Z,22.57
2018-05-31T10:01:24.970Z,21.70
2018-05-31T10:03:53.479Z,21.80
2018-05-31T10:06:21.201Z,22.50
2018-05-31T10:08:49.738Z,19.40
2018-05-31T10:11:17.624Z,22.10
2018-05-31T10:13:45.492Z,25.10
2018-05-31T10:16:13.867Z,25.60
2018-05-31T10:18:41.734Z,26.40
2018-05-31T10:21:09.614Z,28.20
2018-05-31T10:23:37.464Z,24.23
2018-05-31T10:26:05.174Z,24.93
2018-05-31T10:28:32.872Z,26.40
2018-05-31T10:31:01.373Z,25.43
2018-05-31T10:33:29.132Z,20.53
2018-05-31T10:35:56.833Z,17.30
2018-05-31T10:38:25.330Z,17.33
2018-05-31T10:40:53.023Z,17.40
2018-05-31T10:43:20.903Z,16.50
2018-05-31T10:45:48.765Z,16.20
2018-05-31T10:48:16.632Z,14.10
2018-05-31T10:50:44.505Z,15.07
2018-05-31T10:53:12.363Z,18.00
2018-05-31T10:55:40.227Z,15.70
2018-05-31T10:58:08.095Z,16.57
2018-05-31T11:00:35.962Z,14.80
2018-05-31T11:03:04.032Z,14.70
2018-05-31T11:05:31.897Z,15.00
2018-05-31T11:08:12.635Z,15.43
2018-05-31T11:10:42.010Z,13.13
2018-05-31T11:13:10.481Z,13.30
2018-05-31T11:15:39.099Z,12.60
2018-05-31T11:18:06.813Z,12.30
2018-05-31T11:20:34.521Z,13.43
2018-05-31T11:23:02.253Z,13.47
2018-05-31T11:25:30.725Z,12.50
2018-05-31T11:27:59.262Z,11.43
2018-05-31T11:30:26.964Z,11.17
2018-05-31T11:32:55.517Z,13.50
2018-05-31T11:35:23.249Z,12.80
2018-05-31T11:37:50.975Z,12.77
2018-05-31T11:40:19.488Z,11.20
2018-05-31T11:42:50.277Z,9.40
2018-05-31T11:45:19.486Z,11.73
2018-05-31T11:47:47.242Z,11.97
2018-05-31T11:50:14.981Z,10.50
2018-05-31T11:52:42.884Z,11.17
2018-05-31T11:55:11.350Z,10.47
2018-05-31T11:57:39.832Z,10.50
2018-05-31T12:00:07.606Z,10.17
2018-05-31T12:02:36.079Z,11.20
2018-05-31T12:05:05.148Z,10.67
2018-05-31T12:07:33.680Z,12.67
2018-05-31T12:10:02.260Z,9.90
2018-05-31T12:12:31.212Z,11.40
2018-05-31T12:14:59.003Z,9.90
2018-05-31T12:17:27.576Z,10.67
2018-05-31T12:19:57.494Z,10.07
2018-05-31T12:22:25.958Z,10.50
2018-05-31T12:24:53.699Z,10.57
2018-05-31T12:27:21.571Z,9.87
2018-05-31T12:29:49.416Z,10.20
2018-05-31T12:32:17.213Z,9.53
2018-05-31T12:34:45.888Z,9.87
2018-05-31T12:37:13.907Z,9.93
2018-05-31T12:39:41.717Z,9.70
2018-05-31T12:42:10.744Z,9.63
2018-05-31T12:44:39.277Z,10.10
2018-05-31T12:47:06.969Z,9.47
2018-05-31T12:49:34.667Z,10.17
2018-05-31T12:52:02.732Z,11.13
2018-05-31T12:54:30.442Z,11.63
2018-05-31T12:56:58.151Z,12.33
2018-05-31T12:59:26.641Z,12.90
2018-05-31T13:01:55.052Z,13.37
2018-05-31T13:04:22.764Z,12.43
2018-05-31T13:06:51.241Z,11.90
2018-05-31T13:09:19.870Z,12.57
2018-05-31T13:11:47.647Z,14.60
2018-05-31T13:14:15.363Z,12.40
2018-05-31T13:16:43.885Z,12.30
2018-05-31T13:19:11.583Z,14.77
2018-05-31T13:21:40.112Z,14.77
2018-05-31T13:24:08.531Z,14.20
2018-05-31T13:26:36.244Z,13.80
2018-05-31T13:29:03.956Z,14.50
2018-05-31T13:31:31.709Z,13.97
2018-05-31T13:33:59.542Z,14.93
2018-05-31T13:36:27.235Z,15.50
2018-05-31T13:38:54.937Z,13.63
2018-05-31T13:41:23.462Z,13.30
2018-05-31T13:43:51.179Z,13.43
2018-05-31T13:46:20.055Z,13.77
2018-05-31T13:48:48.520Z,12.47
2018-05-31T13:51:16.207Z,15.97
2018-05-31T13:53:44.713Z,18.13
2018-05-31T13:56:12.419Z,17.60
2018-05-31T13:58:40.206Z,19.40
2018-05-31T14:01:09.475Z,19.63
2018-05-31T14:03:37.174Z,20.90
2018-05-31T14:06:06.578Z,20.30
2018-05-31T14:08:35.329Z,19.00
2018-05-31T14:11:03.194Z,18.47
2018-05-31T14:13:31.164Z,17.20
2018-05-31T14:15:59.025Z,15.63
2018-05-31T14:18:27.259Z,18.60
2018-05-31T14:20:54.960Z,16.00
2018-05-31T14:23:22.678Z,15.27
2018-05-31T14:25:50.425Z,13.80
2018-05-31T14:28:18.891Z,11.60
2018-05-31T14:30:47.725Z,9.77
2018-05-31T14:33:15.453Z,9.97
2018-05-31T14:35:43.951Z,10.17
2018-05-31T14:38:11.686Z,9.47
2018-05-31T14:40:40.175Z,9.33
2018-05-31T14:43:08.835Z,8.30
2018-05-31T14:45:36.550Z,9.67
2018-05-31T14:48:04.304Z,9.60
2018-05-31T14:50:32.057Z,9.80
2018-05-31T14:53:00.536Z,8.50
2018-05-31T14:55:29.513Z,7.63
2018-05-31T14:57:57.985Z,8.70
2018-05-31T15:00:25.687Z,8.37
2018-05-31T15:02:53.432Z,7.63
2018-05-31T15:05:21.905Z,8.27
2018-05-31T15:07:49.615Z,7.17
2018-05-31T15:10:18.032Z,8.20
2018-05-31T15:12:45.745Z,8.27
2018-05-31T15:15:13.455Z,10.57
2018-05-31T15:17:41.196Z,9.60
2018-05-31T15:20:08.939Z,12.80
2018-05-31T15:22:36.656Z,13.03
2018-05-31T15:25:05.239Z,12.93
2018-05-31T15:27:33.726Z,13.67
2018-05-31T15:30:02.266Z,15.13
2018-05-31T15:32:30.008Z,13.60
2018-05-31T15:34:57.880Z,14.30
2018-05-31T15:37:25.592Z,16.03
2018-05-31T15:39:54.064Z,15.40
2018-05-31T15:42:21.909Z,16.67
2018-05-31T15:44:49.651Z,15.63
2018-05-31T15:47:17.368Z,15.07
2018-05-31T15:49:45.864Z,15.67
2018-05-31T15:52:13.569Z,16.30
2018-05-31T15:54:41.348Z,15.97
2018-05-31T15:57:09.068Z,17.63
2018-05-31T15:59:36.784Z,17.17
2018-05-31T16:02:05.327Z,18.30
2018-05-31T16:04:33.059Z,22.00
2018-05-31T16:07:00.839Z,22.40
2018-05-31T16:09:28.547Z,23.00
2018-05-31T16:11:56.259Z,26.03
2018-05-31T16:14:24.491Z,26.43
2018-05-31T16:16:52.976Z,26.50
2018-05-31T16:19:21.444Z,27.80
2018-05-31T16:21:49.203Z,30.00
2018-05-31T16:24:17.012Z,31.90
2018-05-31T16:26:44.766Z,34.17
2018-05-31T16:29:12.480Z,35.53
2018-05-31T16:31:40.247Z,36.27
2018-05-31T16:34:07.956Z,30.83
2018-05-31T16:36:36.104Z,31.60
2018-05-31T16:39:04.683Z,30.33
2018-05-31T16:41:33.181Z,31.93
2018-05-31T16:44:01.712Z,30.47
2018-05-31T16:46:29.426Z,34.17
2018-05-31T16:48:57.986Z,37.10
2018-05-31T16:51:25.713Z,34.13
2018-05-31T16:53:53.877Z,37.10
2018-05-31T16:56:21.602Z,36.20
2018-05-31T16:58:50.074Z,35.60
2018-05-31T17:01:18.690Z,38.90
2018-05-31T17:03:46.406Z,39.57
2018-05-31T17:06:14.112Z,42.13
2018-05-31T17:08:41.883Z,47.27
2018-05-31T17:11:09.584Z,48.57
2018-05-31T17:13:37.369Z,46.00
2018-05-31T17:16:06.704Z,43.70
2018-05-31T17:18:41.174Z,43.67
2018-05-31T17:21:10.044Z,43.90
2018-05-31T17:23:37.752Z,42.30
2018-05-31T17:26:06.257Z,41.77
2018-05-31T17:28:34.014Z,44.07
2018-05-31T17:31:01.725Z,42.67
2018-05-31T17:33:29.920Z,41.43
2018-05-31T17:35:58.640Z,44.00
2018-05-31T17:38:27.486Z,39.60
2018-05-31T17:40:55.333Z,40.27
2018-05-31T17:43:23.548Z,42.63
2018-05-31T17:45:52.166Z,40.83
2018-05-31T17:48:20.770Z,38.83
2018-05-31T17:50:48.675Z,37.93
2018-05-31T17:53:18.040Z,33.47
2018-05-31T17:55:45.867Z,37.30
2018-05-31T17:58:15.341Z,33.80
2018-05-31T18:00:43.399Z,31.90
2018-05-31T18:03:11.483Z,32.40
2018-05-31T18:05:40.443Z,30.93
2018-05-31T18:08:08.723Z,32.23
2018-05-31T18:10:37.810Z,31.37
2018-05-31T18:13:05.631Z,30.10
2018-05-31T18:15:33.498Z,28.40
2018-05-31T18:18:01.201Z,27.97
2018-05-31T18:20:28.936Z,29.30
2018-05-31T18:22:56.673Z,30.27
2018-05-31T18:25:25.183Z,32.00
2018-05-31T18:27:52.972Z,30.60
2018-05-31T18:30:20.735Z,27.30
2018-05-31T18:32:48.445Z,28.70
2018-05-31T18:35:21.895Z,30.23
2018-05-31T18:37:49.622Z,29.07
2018-05-31T18:40:17.359Z,30.17
2018-05-31T18:42:53.939Z,30.17
2018-05-31T18:45:22.060Z,34.60
2018-05-31T18:47:50.647Z,32.90
2018-05-31T18:50:18.487Z,35.40
2018-05-31T18:52:47.091Z,34.63
2018-05-31T18:55:14.904Z,34.13
2018-05-31T18:57:42.632Z,36.23
2018-05-31T19:00:10.408Z,34.10
2018-05-31T19:02:38.905Z,36.70
2018-05-31T19:05:06.805Z,38.60
2018-05-31T19:07:34.517Z,37.67
2018-05-31T19:10:04.003Z,36.93
2018-05-31T19:12:37.449Z,38.47
2018-05-31T19:15:05.197Z,38.43
2018-05-31T19:17:33.720Z,36.03
2018-05-31T19:20:01.525Z,36.90
2018-05-31T19:22:29.446Z,39.17
2018-05-31T19:25:02.786Z,39.63
2018-05-31T19:27:32.480Z,38.57
2018-05-31T19:30:06.572Z,40.53
2018-05-31T19:32:34.390Z,37.47
2018-05-31T19:35:03.540Z,40.47
2018-05-31T19:37:33.046Z,43.50
2018-05-31T19:40:01.344Z,42.07
2018-05-31T19:42:34.745Z,44.73
2018-05-31T19:45:03.259Z,46.50
2018-05-31T19:47:30.961Z,47.53
2018-05-31T19:49:58.884Z,45.40
2018-05-31T19:52:32.253Z,37.43
2018-05-31T19:55:00.807Z,40.87
2018-05-31T19:57:28.564Z,50.43
2018-05-31T20:00:02.211Z,39.63
2018-05-31T20:02:36.900Z,38.60
2018-05-31T20:05:05.226Z,36.50
2018-05-31T20:07:33.576Z,39.77
2018-05-31T20:10:01.413Z,52.03
2018-05-31T20:12:29.286Z,55.30
2018-05-31T20:14:57.005Z,44.47
2018-05-31T20:17:29.544Z,55.63
2018-05-31T20:19:58.045Z,43.23
2018-05-31T20:22:25.821Z,50.50
2018-05-31T20:24:53.531Z,50.83
2018-05-31T20:27:21.243Z,37.97
2018-05-31T20:29:48.986Z,39.40
2018-05-31T20:32:17.492Z,42.60
2018-05-31T20:34:45.200Z,44.50
2018-05-31T20:37:13.397Z,37.07
2018-05-31T20:39:41.901Z,41.77
2018-05-31T20:42:09.607Z,42.80
2018-05-31T20:44:37.763Z,29.23
2018-05-31T20:47:05.463Z,36.03
2018-05-31T20:49:33.169Z,34.47
2018-05-31T20:52:00.916Z,46.80
2018-05-31T20:54:28.625Z,51.37
2018-05-31T20:56:56.467Z,35.53
2018-05-31T20:59:24.164Z,42.60
2018-05-31T21:01:51.858Z,41.10
2018-05-31T21:04:20.366Z,37.97
2018-05-31T21:06:48.102Z,33.77
2018-05-31T21:09:16.605Z,39.30
2018-05-31T21:11:44.445Z,40.17
2018-05-31T21:14:12.927Z,40.00
2018-05-31T21:16:41.405Z,38.63
2018-05-31T21:19:09.898Z,32.50
2018-05-31T21:21:37.715Z,41.97
2018-05-31T21:24:05.807Z,42.40
2018-05-31T21:26:33.517Z,51.67
2018-05-31T21:29:01.241Z,48.17
2018-05-31T21:31:29.761Z,30.63
2018-05-31T21:33:57.472Z,34.20
2018-05-31T21:36:25.209Z,31.47
2018-05-31T21:38:52.922Z,31.40
2018-05-31T21:41:20.696Z,28.37
2018-05-31T21:43:48.407Z,35.33
2018-05-31T21:46:16.115Z,36.37
2018-05-31T21:48:43.900Z,34.80
2018-05-31T21:51:11.628Z,37.10
2018-05-31T21:53:40.104Z,45.17
2018-05-31T21:56:08.711Z,44.27
2018-05-31T21:58:36.404Z,36.90
2018-05-31T22:01:04.172Z,34.53
2018-05-31T22:03:31.915Z,38.37
2018-05-31T22:05:59.694Z,34.30
2018-05-31T22:08:27.400Z,36.10
2018-05-31T22:10:55.870Z,40.17
2018-05-31T22:13:24.362Z,42.40
2018-05-31T22:15:52.836Z,42.80
2018-05-31T22:18:21.377Z,44.67
2018-05-31T22:20:49.072Z,35.90
2018-05-31T22:23:17.544Z,38.97
2018-05-31T22:25:45.286Z,36.80
2018-05-31T22:28:12.989Z,43.60
2018-05-31T22:30:41.471Z,42.77
2018-05-31T22:33:10.065Z,42.20
2018-05-31T22:35:38.527Z,46.67
2018-05-31T22:38:07.019Z,34.27
2018-05-31T22:40:35.519Z,34.40
2018-05-31T22:43:03.233Z,34.80
2018-05-31T22:45:30.984Z,37.80
2018-05-31T22:47:58.747Z,33.00
2018-05-31T22:50:26.569Z,34.50
2018-05-31T22:52:54.267Z,42.27
2018-05-31T22:55:22.000Z,37.00
2018-05-31T22:57:49.867Z,39.00
2018-05-31T23:00:17.669Z,36.87
2018-05-31T23:02:45.389Z,43.97
2018-05-31T23:05:13.140Z,47.50
2018-05-31T23:07:40.889Z,53.97
2018-05-31T23:10:09.352Z,53.37
2018-05-31T23:12:37.871Z,46.97
2018-05-31T23:15:05.599Z,50.70
2018-05-31T23:17:34.060Z,46.33
2018-05-31T23:20:01.829Z,52.10
2018-05-31T23:22:29.539Z,50.43
2018-05-31T23:24:57.275Z,54.37
2018-05-31T23:27:25.748Z,50.77
2018-05-31T23:29:54.659Z,53.10
2018-05-31T23:32:22.355Z,49.17
2018-05-31T23:34:50.050Z,48.13
2018-05-31T23:37:17.807Z,49.10
2018-05-31T23:39:45.503Z,47.50
2018-05-31T23:42:13.207Z,49.03
2018-05-31T23:44:41.414Z,47.97
2018-05-31T23:47:09.887Z,45.80
2018-05-31T23:49:37.629Z,47.77
2018-05-31T23:52:05.515Z,44.20
2018-05-31T23:54:33.223Z,41.97
2018-05-31T23:57:00.928Z,42.10
2018-05-31T23:59:28.664Z,45.03
